Time;durP1;ratioP1;P1;durP2;ratioP2;P2;SDS_P1;SDS_P2;PMS_P1;PMS_P2;Temp;Humidity;BMP_temperature;BMP_pressure;BME280_temperature;BME280_humidity;BME280_pressure;Samples;Min_cycle;Max_cycle;Signal;HPM_P1;HPM_P2
2022/06/16 00:01:02;;;;;;;4.60;2.25;;;13.40;99.90;;;;;;5073503;28;20043;-82
2022/06/16 00:03:28;;;;;;;2.97;1.75;;;13.40;99.90;;;;;;5108854;28;20176;-82
2022/06/16 00:05:54;;;;;;;6.25;1.80;;;13.40;99.90;;;;;;5108156;28;20066;-83
2022/06/16 00:08:20;;;;;;;6.18;2.00;;;13.40;99.90;;;;;;5091020;28;20036;-83
2022/06/16 00:13:34;;;;;;;4.72;1.70;;;14.40;99.90;;;;;;5106744;28;20132;-82
2022/06/16 00:15:59;;;;;;;4.63;1.75;;;13.40;99.90;;;;;;5110576;27;20059;-83
2022/06/16 00:18:26;;;;;;;2.40;1.77;;;13.30;99.90;;;;;;5108675;28;20048;-82
2022/06/16 00:20:52;;;;;;;5.82;1.80;;;14.10;99.90;;;;;;5092216;28;20420;-82
2022/06/16 00:23:18;;;;;;;4.53;2.00;;;13.30;99.90;;;;;;5074514;28;20039;-82
2022/06/16 00:25:43;;;;;;;6.13;2.00;;;13.40;99.90;;;;;;5107483;28;20067;-82
2022/06/16 00:28:09;;;;;;;4.55;1.92;;;14.30;99.90;;;;;;5109029;28;20128;-83
2022/06/16 00:30:35;;;;;;;4.03;1.73;;;13.40;99.90;;;;;;5107300;28;20047;-83
2022/06/16 00:33:01;;;;;;;5.68;1.83;;;14.40;99.90;;;;;;5110662;28;20105;-81
2022/06/16 00:35:26;;;;;;;2.83;1.80;;;13.40;99.90;;;;;;5090679;28;20043;-83
2022/06/16 00:37:52;;;;;;;4.10;1.95;;;13.50;99.90;;;;;;5108974;28;20100;-83
2022/06/16 00:40:18;;;;;;;7.40;1.67;;;13.50;99.90;;;;;;5090780;28;20109;-83
2022/06/16 00:42:44;;;;;;;5.65;1.88;;;13.50;99.90;;;;;;5108786;28;20123;-83
2022/06/16 00:45:43;;;;;;;7.13;1.75;;;13.50;99.90;;;;;;5108520;28;20088;-83
2022/06/16 00:48:17;;;;;;;4.72;2.63;;;13.50;99.90;;;;;;5107203;28;20040;-82
2022/06/16 00:50:46;;;;;;;2.55;1.73;;;13.50;99.90;;;;;;5107958;28;20051;-83
2022/06/16 00:53:12;;;;;;;3.03;1.65;;;13.40;99.90;;;;;;5107617;28;20040;-83
2022/06/16 00:55:38;;;;;;;4.80;2.10;;;13.40;99.90;;;;;;5107090;28;20096;-83
2022/06/16 00:58:04;;;;;;;3.83;1.80;;;13.40;99.90;;;;;;5108497;28;20035;-83
2022/06/16 01:01:03;;;;;;;6.70;2.53;;;13.40;99.90;;;;;;5089492;28;20051;-83
2022/06/16 01:06:24;;;;;;;5.32;2.38;;;13.30;99.90;;;;;;5107820;28;20412;-83
2022/06/16 01:08:54;;;;;;;2.47;1.60;;;13.30;99.90;;;;;;5089558;28;20133;-83
2022/06/16 01:14:53;;;;;;;4.22;2.03;;;13.30;99.90;;;;;;5106691;28;20050;-83
2022/06/16 01:17:53;;;;;;;4.88;1.80;;;13.30;99.90;;;;;;5089629;28;20048;-82
2022/06/16 01:20:50;;;;;;;3.95;1.63;;;13.30;99.90;;;;;;5103162;28;20062;-82
2022/06/16 01:23:34;;;;;;;3.83;1.27;;;13.20;99.90;;;;;;5108222;28;20150;-82
2022/06/16 01:26:14;;;;;;;4.80;2.08;;;13.10;99.90;;;;;;5108235;28;20113;-83
2022/06/16 01:29:12;;;;;;;5.65;1.90;;;13.10;99.90;;;;;;5110609;28;20474;-83
2022/06/16 01:31:47;;;;;;;2.70;1.30;;;13.10;99.90;;;;;;5092935;28;20556;-83
2022/06/16 01:34:26;;;;;;;3.78;2.22;;;13.10;99.90;;;;;;5108903;28;20047;-82
2022/06/16 01:37:09;;;;;;;9.38;2.60;;;13.10;99.90;;;;;;5109555;28;20421;-82
2022/06/16 01:39:44;;;;;;;5.00;2.00;;;13.10;99.90;;;;;;5107520;28;20036;-83
2022/06/16 01:42:20;;;;;;;2.88;1.73;;;13.10;99.90;;;;;;5108435;28;20134;-82
2022/06/16 01:44:58;;;;;;;3.33;1.92;;;13.00;99.90;;;;;;5094260;28;20051;-83
2022/06/16 01:47:28;;;;;;;4.95;2.42;;;13.00;99.90;;;;;;5109898;28;20065;-82
2022/06/16 01:50:03;;;;;;;5.68;2.10;;;14.10;99.90;;;;;;5108530;28;20056;-82
2022/06/16 01:52:39;;;;;;;5.38;2.35;;;13.00;99.90;;;;;;5106251;28;20039;-82
2022/06/16 01:55:11;;;;;;;4.18;2.00;;;13.20;99.90;;;;;;5107384;28;20403;-83
2022/06/16 01:57:37;;;;;;;5.60;1.73;;;13.00;99.90;;;;;;5106965;28;20047;-83
2022/06/16 02:00:12;;;;;;;4.53;1.75;;;13.10;99.90;;;;;;5106560;28;20052;-83
2022/06/16 02:02:41;;;;;;;5.50;1.98;;;13.10;99.90;;;;;;5090387;28;20048;-83
2022/06/16 02:05:23;;;;;;;6.18;1.45;;;13.10;99.90;;;;;;5105176;28;20508;-82
2022/06/16 02:07:59;;;;;;;5.65;1.83;;;13.10;99.90;;;;;;5106744;28;20192;-83
2022/06/16 02:10:29;;;;;;;7.35;1.50;;;13.10;99.90;;;;;;5089756;28;20048;-83
2022/06/16 02:12:58;;;;;;;5.20;2.22;;;13.10;99.90;;;;;;5088574;28;20039;-82
2022/06/16 02:15:34;;;;;;;4.97;2.10;;;13.10;99.90;;;;;;5107318;28;20127;-82
2022/06/16 02:18:02;;;;;;;4.20;1.98;;;13.10;99.90;;;;;;5104952;28;20054;-82
2022/06/16 02:20:43;;;;;;;4.07;2.17;;;13.90;99.90;;;;;;5090325;28;20501;-82
2022/06/16 02:23:09;;;;;;;2.58;1.60;;;13.10;99.90;;;;;;5089278;28;20043;-83
2022/06/16 02:25:35;;;;;;;4.75;1.70;;;13.10;99.90;;;;;;5105999;28;20126;-83
2022/06/16 02:28:01;;;;;;;5.90;1.77;;;13.20;99.90;;;;;;5090747;28;20465;-83
2022/06/16 02:30:31;;;;;;;3.08;1.40;;;13.10;99.90;;;;;;5088141;28;20040;-82
2022/06/16 02:32:57;;;;;;;4.07;1.55;;;13.10;99.90;;;;;;5107121;28;20051;-82
2022/06/16 02:35:51;;;;;;;4.00;1.45;;;13.20;99.90;;;;;;5087833;28;20051;-82
2022/06/16 02:38:27;;;;;;;4.03;1.60;;;13.10;99.90;;;;;;5089003;28;20047;-82
2022/06/16 02:41:18;;;;;;;5.35;1.70;;;13.10;99.90;;;;;;5106752;28;20116;-83
2022/06/16 02:43:46;;;;;;;4.40;1.70;;;13.10;99.90;;;;;;5104750;28;20047;-82
2022/06/16 02:46:27;;;;;;;4.82;1.80;;;13.00;99.90;;;;;;5107086;28;20043;-83
2022/06/16 02:49:25;;;;;;;3.30;1.75;;;12.70;99.90;;;;;;5105994;28;20116;-83
2022/06/16 02:52:14;;;;;;;3.42;1.60;;;12.80;99.90;;;;;;5049363;28;20569;-82
2022/06/16 02:54:45;;;;;;;3.28;1.35;;;12.70;99.90;;;;;;5106805;28;20672;-82
2022/06/16 02:57:37;;;;;;;3.42;1.40;;;12.30;99.90;;;;;;5088563;28;20052;-83
2022/06/16 03:00:08;;;;;;;6.32;1.60;;;12.60;99.90;;;;;;5070949;28;20063;-83
2022/06/16 03:02:36;;;;;;;2.50;1.60;;;12.60;99.90;;;;;;5107947;28;20445;-83
2022/06/16 03:05:05;;;;;;;4.53;1.55;;;12.50;99.90;;;;;;5091690;28;20043;-83
2022/06/16 03:07:34;;;;;;;3.20;1.83;;;12.50;99.90;;;;;;5107513;28;20097;-83
2022/06/16 03:10:06;;;;;;;5.13;1.77;;;12.50;99.90;;;;;;5107868;28;20044;-83
2022/06/16 03:12:33;;;;;;;5.18;1.38;;;12.50;99.90;;;;;;5107795;28;20044;-83
2022/06/16 03:14:58;;;;;;;4.20;1.60;;;12.50;99.90;;;;;;5107528;28;20032;-83
2022/06/16 03:17:24;;;;;;;4.18;1.63;;;12.50;99.90;;;;;;5074490;28;20100;-83
2022/06/16 03:19:50;;;;;;;3.28;1.38;;;12.50;99.90;;;;;;5107575;28;20483;-83
2022/06/16 03:22:18;;;;;;;3.08;1.30;;;13.00;99.90;;;;;;5091230;28;20054;-84
2022/06/16 03:24:44;;;;;;;4.30;1.75;;;12.50;99.90;;;;;;5090610;28;20100;-83
2022/06/16 03:27:11;;;;;;;5.25;1.52;;;12.50;99.90;;;;;;5109591;28;20119;-83
2022/06/16 03:29:37;;;;;;;3.63;1.52;;;12.60;99.90;;;;;;5090805;28;20058;-83
2022/06/16 03:32:03;;;;;;;3.72;1.58;;;12.60;99.90;;;;;;5109299;28;20403;-83
2022/06/16 03:34:30;;;;;;;4.57;2.00;;;12.60;99.90;;;;;;5109225;28;20048;-83
2022/06/16 03:36:56;;;;;;;2.80;1.40;;;12.60;99.90;;;;;;5108943;28;20044;-83
2022/06/16 03:39:23;;;;;;;3.53;1.35;;;12.70;99.90;;;;;;5092928;28;20134;-84
2022/06/16 03:41:49;;;;;;;3.70;1.75;;;12.70;99.90;;;;;;5111027;28;20047;-83
2022/06/16 03:44:15;;;;;;;4.30;1.65;;;12.70;99.90;;;;;;5094473;28;20134;-83
2022/06/16 03:46:40;;;;;;;5.00;1.70;;;12.70;99.90;;;;;;5111060;28;20131;-83
2022/06/16 03:49:07;;;;;;;4.22;2.20;;;12.70;99.90;;;;;;5093876;28;20039;-83
2022/06/16 03:51:33;;;;;;;7.07;1.88;;;13.70;99.90;;;;;;5111048;28;20523;-82
2022/06/16 03:53:59;;;;;;;8.55;1.85;;;12.80;99.90;;;;;;5111047;28;20055;-84
2022/06/16 03:56:24;;;;;;;7.53;2.33;;;12.90;99.90;;;;;;5111651;28;20132;-83
2022/06/16 03:58:52;;;;;;;5.97;1.60;;;12.90;99.90;;;;;;5111126;28;20043;-83
2022/06/16 04:01:19;;;;;;;4.00;1.63;;;12.90;99.90;;;;;;5112695;28;20035;-82
2022/06/16 04:03:59;;;;;;;5.63;2.00;;;13.00;99.90;;;;;;5110679;28;20089;-84
2022/06/16 04:06:25;;;;;;;5.88;2.05;;;13.10;99.90;;;;;;5110727;28;20476;-83
2022/06/16 04:08:51;;;;;;;7.53;1.73;;;13.10;99.90;;;;;;5111069;28;20096;-83
2022/06/16 04:11:30;;;;;;;6.00;2.10;;;13.10;99.90;;;;;;5110382;28;20518;-84
2022/06/16 04:14:10;;;;;;;3.30;2.28;;;13.10;99.90;;;;;;5096201;28;20476;-84
2022/06/16 04:16:42;;;;;;;3.72;1.70;;;13.10;99.90;;;;;;5093561;28;20075;-84
2022/06/16 04:19:10;;;;;;;6.90;2.17;;;13.20;99.90;;;;;;5110608;28;20044;-84
2022/06/16 04:21:37;;;;;;;5.63;2.50;;;13.90;99.90;;;;;;5110761;28;20350;-85
2022/06/16 04:24:03;;;;;;;4.82;2.13;;;13.20;99.90;;;;;;5111875;28;20040;-84
2022/06/16 04:26:28;;;;;;;5.40;2.38;;;13.20;99.90;;;;;;5112967;28;20055;-81
2022/06/16 04:28:54;;;;;;;6.22;2.67;;;13.30;99.90;;;;;;5110508;28;20523;-83
2022/06/16 04:31:20;;;;;;;5.72;2.42;;;13.30;99.90;;;;;;5110597;28;20043;-83
2022/06/16 04:33:46;;;;;;;3.75;2.08;;;13.30;99.90;;;;;;5110205;28;20075;-83
2022/06/16 04:36:14;;;;;;;6.90;2.83;;;13.40;99.90;;;;;;5110571;28;20083;-83
2022/06/16 04:38:39;;;;;;;3.75;2.35;;;13.40;99.90;;;;;;5110113;28;20039;-83
2022/06/16 04:41:05;;;;;;;9.38;2.72;;;13.50;99.90;;;;;;5109909;28;20051;-84
2022/06/16 04:43:32;;;;;;;7.03;2.35;;;13.50;99.90;;;;;;5109571;28;20511;-83
2022/06/16 04:45:58;;;;;;;3.20;1.92;;;13.60;99.90;;;;;;5108581;28;20032;-83
2022/06/16 04:48:25;;;;;;;5.00;2.22;;;13.70;99.90;;;;;;5108938;28;20059;-83
2022/06/16 04:50:50;;;;;;;6.15;2.45;;;13.80;99.90;;;;;;5091710;28;20406;-83
2022/06/16 04:53:16;;;;;;;5.25;2.80;;;14.00;99.90;;;;;;5091854;28;20551;-84
2022/06/16 04:55:42;;;;;;;5.13;2.40;;;14.00;99.90;;;;;;5109207;28;20088;-83
2022/06/16 04:58:10;;;;;;;4.00;1.95;;;14.20;99.90;;;;;;5092525;28;20126;-80
2022/06/16 05:00:36;;;;;;;7.47;2.25;;;14.50;99.90;;;;;;5092064;28;20875;-81
2022/06/16 05:03:03;;;;;;;5.05;1.85;;;14.50;99.90;;;;;;5109494;28;20147;-80
2022/06/16 05:05:28;;;;;;;8.45;2.08;;;14.70;99.90;;;;;;5111530;28;20071;-81
2022/06/16 05:07:54;;;;;;;5.28;2.00;;;14.90;99.90;;;;;;5091887;28;20441;-81
2022/06/16 05:10:20;;;;;;;3.65;2.10;;;15.00;99.90;;;;;;5109451;28;20043;-81
2022/06/16 05:12:45;;;;;;;5.55;1.65;;;15.20;99.90;;;;;;5110190;28;20081;-82
2022/06/16 05:15:11;;;;;;;2.88;1.10;;;15.40;99.90;;;;;;5109592;28;20096;-84
2022/06/16 05:17:37;;;;;;;2.58;1.27;;;15.60;99.90;;;;;;5110332;28;20040;-84
2022/06/16 05:20:03;;;;;;;2.47;1.35;;;15.70;99.90;;;;;;5109685;28;20132;-84
2022/06/16 05:22:29;;;;;;;3.70;1.38;;;15.80;99.90;;;;;;5110001;28;20032;-85
2022/06/16 05:24:55;;;;;;;2.13;1.15;;;16.00;99.90;;;;;;5109612;28;20414;-84
2022/06/16 05:27:21;;;;;;;9.50;1.80;;;16.10;99.90;;;;;;5109223;28;20039;-81
2022/06/16 05:29:47;;;;;;;3.65;1.40;;;16.10;99.90;;;;;;5109681;28;20047;-81
2022/06/16 05:32:12;;;;;;;3.20;1.65;;;16.20;99.90;;;;;;5073597;28;20090;-81
2022/06/16 05:34:38;;;;;;;2.20;1.48;;;16.80;99.90;;;;;;5108246;28;20097;-81
2022/06/16 05:37:05;;;;;;;3.08;1.20;;;16.20;99.90;;;;;;5108788;28;20043;-80
2022/06/16 05:39:30;;;;;;;2.65;1.20;;;16.20;99.90;;;;;;5108294;28;20050;-80
2022/06/16 05:41:56;;;;;;;3.70;1.38;;;16.30;99.90;;;;;;5108860;28;20447;-81
2022/06/16 05:44:22;;;;;;;3.42;1.17;;;16.30;99.90;;;;;;5107466;28;20048;-81
2022/06/16 05:46:48;;;;;;;2.15;1.17;;;16.40;99.90;;;;;;5106811;28;20047;-81
2022/06/16 05:49:15;;;;;;;2.42;1.00;;;16.30;99.90;;;;;;5071625;28;20051;-81
2022/06/16 05:51:41;;;;;;;5.85;1.30;;;16.30;99.90;;;;;;5107339;28;20054;-81
2022/06/16 05:54:07;;;;;;;3.67;0.93;;;16.40;99.90;;;;;;5106010;28;20051;-79
2022/06/16 05:56:34;;;;;;;2.92;0.88;;;16.40;99.90;;;;;;5107129;28;20445;-78
2022/06/16 05:59:00;;;;;;;3.70;1.05;;;16.50;99.90;;;;;;5089444;28;20036;-80
2022/06/16 06:01:25;;;;;;;1.25;0.68;;;16.50;99.90;;;;;;5071532;28;20152;-79
2022/06/16 06:03:51;;;;;;;3.95;0.80;;;16.50;99.90;;;;;;5089430;28;20090;-82
2022/06/16 06:06:17;;;;;;;5.13;1.02;;;16.60;99.90;;;;;;5106732;28;20062;-82
2022/06/16 06:17:15;;;;;;;4.05;0.75;;;16.90;99.90;;;;;;5107150;28;20104;-82
2022/06/16 06:19:42;;;;;;;3.10;0.50;;;17.40;99.90;;;;;;5106200;28;20039;-83
2022/06/16 06:22:13;;;;;;;5.43;0.90;;;16.90;99.90;;;;;;5107984;28;20550;-82
2022/06/16 06:24:54;;;;;;;5.05;0.68;;;17.00;99.90;;;;;;5106590;28;20097;-83
2022/06/16 06:27:21;;;;;;;4.68;0.68;;;17.10;99.90;;;;;;5105712;28;20043;-83
2022/06/16 06:29:48;;;;;;;5.80;0.75;;;17.10;99.90;;;;;;5106444;28;20050;-83
2022/06/16 06:32:16;;;;;;;4.50;0.63;;;17.30;99.90;;;;;;5087983;28;20492;-83
2022/06/16 06:34:42;;;;;;;2.08;1.02;;;17.30;99.90;;;;;;5090322;28;20102;-83
2022/06/16 06:37:10;;;;;;;3.42;0.77;;;17.40;99.90;;;;;;5106657;28;20058;-84
2022/06/16 06:39:35;;;;;;;3.05;0.50;;;17.40;99.90;;;;;;5106158;28;20089;-84
2022/06/16 06:42:03;;;;;;;4.45;0.63;;;17.40;99.90;;;;;;5088850;28;20063;-84
2022/06/16 06:44:29;;;;;;;3.13;0.80;;;17.50;99.90;;;;;;5104837;28;20075;-83
2022/06/16 06:46:55;;;;;;;3.00;0.90;;;17.60;99.90;;;;;;5106450;28;20051;-84
2022/06/16 06:49:21;;;;;;;4.13;0.82;;;17.70;99.90;;;;;;5105085;28;20386;-81
2022/06/16 06:51:47;;;;;;;2.63;0.80;;;17.70;99.90;;;;;;5089813;28;20089;-81
2022/06/16 06:54:13;;;;;;;4.90;0.82;;;17.90;99.90;;;;;;5105518;28;20060;-81
2022/06/16 06:56:39;;;;;;;1.92;0.65;;;18.00;99.90;;;;;;5105641;28;20511;-80
2022/06/16 06:59:07;;;;;;;2.15;0.68;;;18.00;99.90;;;;;;5105843;28;20054;-80
2022/06/16 07:01:34;;;;;;;3.67;0.70;;;18.10;99.90;;;;;;5104928;28;20372;-80
2022/06/16 07:04:00;;;;;;;3.00;0.60;;;18.20;99.90;;;;;;5105825;28;20040;-80
2022/06/16 07:06:26;;;;;;;2.55;0.52;;;18.30;99.90;;;;;;5087722;28;20047;-80
2022/06/16 07:08:52;;;;;;;2.00;0.50;;;18.30;99.90;;;;;;5072254;28;20407;-80
2022/06/16 07:11:17;;;;;;;1.45;0.40;;;18.40;99.90;;;;;;5088046;28;20035;-80
2022/06/16 07:13:43;;;;;;;0.80;0.43;;;18.50;99.90;;;;;;5106845;28;20035;-81
2022/06/16 07:16:09;;;;;;;2.97;0.70;;;18.50;99.90;;;;;;5110039;28;20048;-80
2022/06/16 07:18:35;;;;;;;2.15;0.80;;;18.60;99.90;;;;;;5110047;28;20596;-81
2022/06/16 07:21:01;;;;;;;2.75;0.60;;;18.60;99.90;;;;;;5109801;28;20074;-80
2022/06/16 07:23:27;;;;;;;1.20;0.60;;;18.70;99.90;;;;;;5091727;28;20126;-80
2022/06/16 07:25:53;;;;;;;2.42;0.40;;;18.70;99.90;;;;;;5109840;28;20415;-80
2022/06/16 07:28:20;;;;;;;3.85;1.00;;;18.80;99.90;;;;;;5108487;28;20039;-81
2022/06/16 07:30:46;;;;;;;1.50;0.70;;;19.60;99.90;;;;;;5109423;28;20079;-80
2022/06/16 07:33:12;;;;;;;2.05;0.63;;;19.00;99.90;;;;;;5109172;28;20039;-80
2022/06/16 07:35:43;;;;;;;1.90;0.40;;;19.10;99.90;;;;;;5108306;28;20058;-81
2022/06/16 07:38:11;;;;;;;3.85;0.52;;;19.20;99.90;;;;;;5092374;28;20135;-80
2022/06/16 07:40:38;;;;;;;5.57;0.40;;;19.40;99.90;;;;;;5090934;28;20054;-80
2022/06/16 07:43:04;;;;;;;2.20;0.60;;;19.50;99.90;;;;;;5109712;28;20126;-81
2022/06/16 07:45:30;;;;;;;2.70;0.73;;;19.60;99.90;;;;;;5108217;28;20101;-81
2022/06/16 07:48:00;;;;;;;1.88;0.73;;;19.60;99.90;;;;;;5109167;28;20061;-82
2022/06/16 07:50:26;;;;;;;1.50;0.50;;;19.70;99.90;;;;;;5108922;28;20082;-81
2022/06/16 07:52:52;;;;;;;2.78;0.80;;;19.70;99.90;;;;;;5091158;28;20048;-81
2022/06/16 07:55:18;;;;;;;2.88;0.57;;;19.80;99.90;;;;;;5109645;28;20055;-81
2022/06/16 07:57:49;;;;;;;2.10;0.70;;;19.90;99.90;;;;;;5107773;28;20127;-81
2022/06/16 08:00:21;;;;;;;2.60;0.70;;;20.00;99.90;;;;;;5092524;28;20047;-80
2022/06/16 08:02:47;;;;;;;1.83;0.55;;;20.10;99.90;;;;;;5109676;28;20480;-81
2022/06/16 08:05:13;;;;;;;2.70;0.70;;;20.20;99.90;;;;;;5110294;28;20055;-82
2022/06/16 08:07:41;;;;;;;2.40;0.73;;;20.20;99.90;;;;;;5110569;28;20054;-82
2022/06/16 08:10:11;;;;;;;4.50;0.45;;;20.30;99.40;;;;;;5109092;28;20055;-82
2022/06/16 08:12:38;;;;;;;1.05;0.57;;;20.30;99.50;;;;;;5110656;28;20036;-82
2022/06/16 08:15:04;;;;;;;2.42;0.70;;;20.40;99.20;;;;;;5109073;28;20032;-82
2022/06/16 08:17:32;;;;;;;4.20;0.60;;;20.50;98.60;;;;;;5112262;28;20122;-83
2022/06/16 08:19:59;;;;;;;3.40;0.98;;;20.50;98.90;;;;;;5111108;28;20058;-81
2022/06/16 08:22:26;;;;;;;4.60;0.80;;;20.60;98.70;;;;;;5110678;28;20051;-82
2022/06/16 08:24:52;;;;;;;2.67;0.50;;;20.70;98.30;;;;;;5109651;28;20059;-82
2022/06/16 08:27:20;;;;;;;0.98;0.50;;;20.70;97.90;;;;;;5109763;27;20039;-81
2022/06/16 08:29:46;;;;;;;3.92;1.25;;;20.80;96.70;;;;;;5111125;28;20044;-82
2022/06/16 08:32:15;;;;;;;2.90;0.80;;;20.90;96.00;;;;;;5109677;28;20089;-82
2022/06/16 08:34:41;;;;;;;3.15;0.70;;;21.10;95.30;;;;;;5110010;28;20394;-82
2022/06/16 08:37:07;;;;;;;2.35;0.50;;;21.20;94.20;;;;;;5091663;28;20044;-82
2022/06/16 08:39:33;;;;;;;2.67;0.70;;;21.30;94.70;;;;;;5108871;28;20039;-82
2022/06/16 08:42:09;;;;;;;1.50;0.40;;;21.40;94.90;;;;;;5109022;28;20051;-82
2022/06/16 08:44:40;;;;;;;1.65;0.75;;;21.50;92.20;;;;;;5107796;28;20065;-82
2022/06/16 08:47:45;;;;;;;2.03;0.90;;;21.60;94.20;;;;;;5109211;28;20040;-82
2022/06/16 08:50:33;;;;;;;1.40;0.70;;;21.70;91.70;;;;;;5052401;28;20063;-82
2022/06/16 08:53:41;;;;;;;3.58;0.57;;;21.80;91.50;;;;;;5108302;28;20054;-82
2022/06/16 08:56:18;;;;;;;2.83;0.80;;;22.00;91.70;;;;;;5061658;28;20059;-82
2022/06/16 08:58:58;;;;;;;2.78;0.80;;;22.20;88.70;;;;;;5109299;28;20107;-81
2022/06/16 09:01:26;;;;;;;3.15;1.15;;;22.20;86.20;;;;;;5108658;28;20047;-83
2022/06/16 09:04:02;;;;;;;1.05;0.68;;;22.30;84.50;;;;;;5109318;28;20050;-81
2022/06/16 09:06:43;;;;;;;1.63;0.70;;;22.30;84.10;;;;;;5106510;28;20052;-81
2022/06/16 09:12:31;;;;;;;2.45;0.60;;;22.20;84.70;;;;;;5107558;28;20099;-81
2022/06/16 09:15:10;;;;;;;2.38;1.00;;;22.00;78.80;;;;;;5106737;28;20130;-81
2022/06/16 09:17:59;;;;;;;1.48;0.60;;;22.00;83.70;;;;;;5108204;28;20079;-81
2022/06/16 09:20:43;;;;;;;2.10;0.95;;;22.20;84.40;;;;;;5108167;28;20055;-81
2022/06/16 09:23:33;;;;;;;4.78;0.88;;;22.40;86.20;;;;;;5106733;28;20043;-81
2022/06/16 09:26:27;;;;;;;6.22;1.10;;;22.50;83.00;;;;;;5107837;28;20039;-81
2022/06/16 09:29:18;;;;;;;2.05;0.57;;;22.50;81.30;;;;;;5107381;28;20120;-81
2022/06/16 09:32:11;;;;;;;1.60;0.90;;;22.40;80.90;;;;;;5106192;28;20513;-81
2022/06/16 09:34:48;;;;;;;4.13;0.90;;;22.40;80.70;;;;;;5107731;28;20044;-81
2022/06/16 09:37:20;;;;;;;4.68;0.90;;;22.30;81.00;;;;;;5105962;28;20123;-81
2022/06/16 09:39:58;;;;;;;2.13;0.90;;;22.20;82.90;;;;;;5089224;28;20193;-81
2022/06/16 09:42:33;;;;;;;3.92;0.98;;;22.30;81.00;;;;;;5108327;28;20523;-81
2022/06/16 09:45:11;;;;;;;3.22;0.80;;;22.40;84.20;;;;;;5107535;28;20042;-81
2022/06/16 09:47:53;;;;;;;3.83;1.25;;;22.60;80.40;;;;;;5108550;28;20527;-83
2022/06/16 09:50:38;;;;;;;2.78;1.02;;;22.70;82.90;;;;;;5108581;28;20052;-80
2022/06/16 09:53:24;;;;;;;3.20;1.00;;;22.90;79.40;;;;;;5107445;28;20483;-81
2022/06/16 09:56:01;;;;;;;4.57;1.30;;;23.00;76.70;;;;;;5107349;28;20153;-82
2022/06/16 09:58:36;;;;;;;2.42;1.27;;;23.10;77.50;;;;;;5106661;28;20048;-81
2022/06/16 10:01:10;;;;;;;2.40;1.10;;;23.20;76.20;;;;;;5105966;28;20320;-81
2022/06/16 10:03:45;;;;;;;0.95;0.75;;;23.50;77.80;;;;;;5108250;28;20044;-82
2022/06/16 10:06:10;;;;;;;2.03;0.75;;;23.60;74.20;;;;;;5107064;28;20051;-81
2022/06/16 10:09:03;;;;;;;1.98;1.30;;;23.70;74.50;;;;;;5108703;28;20040;-81
2022/06/16 10:11:53;;;;;;;3.55;0.98;;;23.90;69.60;;;;;;5107926;28;20122;-81
2022/06/16 10:14:19;;;;;;;2.38;1.23;;;23.90;69.40;;;;;;5105600;28;20052;-82
2022/06/16 10:16:55;;;;;;;3.97;1.35;;;24.00;71.30;;;;;;5108111;28;20063;-82
2022/06/16 10:19:27;;;;;;;1.75;0.80;;;24.10;66.10;;;;;;5107052;28;20043;-82
2022/06/16 10:21:53;;;;;;;3.92;1.08;;;24.20;63.90;;;;;;5108428;28;20106;-82
2022/06/16 10:24:21;;;;;;;2.10;1.10;;;24.30;66.20;;;;;;5106060;28;20485;-81
2022/06/16 10:26:46;;;;;;;3.28;1.33;;;24.50;63.20;;;;;;5106786;28;20044;-82
2022/06/16 10:29:26;;;;;;;2.75;1.13;;;24.60;62.70;;;;;;5107920;28;20040;-81
2022/06/16 10:31:54;;;;;;;2.15;1.27;;;24.70;61.90;;;;;;5106861;28;20043;-81
2022/06/16 10:34:27;;;;;;;1.77;1.10;;;24.80;61.90;;;;;;5107249;28;20497;-82
2022/06/16 10:37:18;;;;;;;2.10;0.98;;;24.80;61.30;;;;;;5088753;28;20050;-82
2022/06/16 10:39:55;;;;;;;3.75;1.25;;;25.00;58.50;;;;;;5105645;28;20389;-82
2022/06/16 10:42:28;;;;;;;1.58;0.90;;;25.00;59.40;;;;;;5106546;28;20074;-82
2022/06/16 10:44:59;;;;;;;3.15;1.00;;;25.10;59.60;;;;;;5105620;28;20412;-82
2022/06/16 10:47:35;;;;;;;3.58;0.90;;;25.50;59.10;;;;;;5107535;28;20052;-82
2022/06/16 10:50:05;;;;;;;2.15;1.10;;;25.10;59.90;;;;;;5110226;28;20062;-82
2022/06/16 10:52:39;;;;;;;2.60;1.50;;;25.20;61.90;;;;;;5110751;28;20056;-82
2022/06/16 10:55:10;;;;;;;3.47;1.23;;;25.30;60.50;;;;;;5110525;28;20104;-81
2022/06/16 10:57:57;;;;;;;3.88;1.20;;;25.40;59.60;;;;;;5110719;28;20552;-81
2022/06/16 11:00:25;;;;;;;2.20;1.02;;;25.50;58.80;;;;;;5112298;28;20048;-81
2022/06/16 11:02:56;;;;;;;5.28;1.48;;;25.60;59.70;;;;;;5111777;28;20044;-81
2022/06/16 11:05:23;;;;;;;2.47;1.23;;;25.70;56.90;;;;;;5110891;28;20043;-81
2022/06/16 11:07:49;;;;;;;2.95;1.27;;;25.70;57.50;;;;;;5110091;28;20285;-79
2022/06/16 11:10:28;;;;;;;3.67;1.30;;;25.70;57.40;;;;;;5075555;28;20496;-79
2022/06/16 11:12:54;;;;;;;4.72;1.30;;;25.60;57.10;;;;;;5110742;28;20056;-79
2022/06/16 11:15:40;;;;;;;4.22;1.20;;;25.60;56.30;;;;;;5075500;28;20130;-79
2022/06/16 11:18:11;;;;;;;1.95;0.98;;;25.60;54.20;;;;;;5110881;28;20051;-79
2022/06/16 11:20:43;;;;;;;3.55;1.00;;;25.80;56.70;;;;;;5110510;28;20047;-79
2022/06/16 11:23:31;;;;;;;3.83;1.10;;;25.80;57.10;;;;;;5108915;28;20060;-79
2022/06/16 11:26:24;;;;;;;3.20;0.98;;;26.10;57.70;;;;;;5110047;28;20043;-79
2022/06/16 11:28:57;;;;;;;1.48;0.93;;;26.20;52.80;;;;;;5110145;28;20174;-79
2022/06/16 11:31:39;;;;;;;3.28;1.30;;;26.30;54.40;;;;;;5108657;28;20073;-80
2022/06/16 11:34:20;;;;;;;3.30;1.20;;;26.40;52.40;;;;;;5111483;28;20050;-80
2022/06/16 11:36:55;;;;;;;2.03;1.02;;;26.40;53.50;;;;;;5110445;28;20059;-80
2022/06/16 11:39:47;;;;;;;1.75;1.00;;;26.40;50.80;;;;;;5110166;28;20082;-80
2022/06/16 11:42:56;;;;;;;1.77;0.80;;;26.40;49.80;;;;;;5110933;28;20052;-80
2022/06/16 11:45:31;;;;;;;2.10;0.98;;;26.30;50.80;;;;;;5108712;28;20054;-80
2022/06/16 11:48:23;;;;;;;1.83;0.90;;;26.40;52.70;;;;;;5110159;28;20063;-80
2022/06/16 11:51:23;;;;;;;1.80;0.95;;;26.40;50.50;;;;;;5111042;28;20044;-80
2022/06/16 11:54:30;;;;;;;1.58;0.82;;;26.50;50.40;;;;;;5109902;28;20119;-80
2022/06/16 11:57:23;;;;;;;2.75;1.02;;;26.40;49.90;;;;;;5108619;28;20360;-80
2022/06/16 12:00:03;;;;;;;1.63;1.00;;;26.40;51.00;;;;;;5108719;28;20052;-80
2022/06/16 12:02:50;;;;;;;2.15;0.60;;;26.50;51.20;;;;;;5110125;28;20032;-80
2022/06/16 12:05:53;;;;;;;2.85;0.95;;;26.60;51.50;;;;;;5108048;28;20134;-79
2022/06/16 12:08:25;;;;;;;1.75;0.70;;;26.80;50.60;;;;;;5109835;28;20039;-80
2022/06/16 12:10:53;;;;;;;;;;;26.90;50.30;;;;;;5109862;27;20088;-80
2022/06/16 12:13:32;;;;;;;3.70;1.00;;;27.00;48.10;;;;;;5110553;28;20428;-80
2022/06/16 12:16:16;;;;;;;2.15;0.98;;;27.00;49.70;;;;;;5109137;28;20062;-80
2022/06/16 12:18:55;;;;;;;2.47;1.00;;;26.90;50.10;;;;;;5109267;28;20096;-80
2022/06/16 12:21:37;;;;;;;1.77;1.05;;;26.90;49.00;;;;;;5110602;28;20043;-79
2022/06/16 12:24:26;;;;;;;1.85;1.17;;;26.80;49.60;;;;;;5109888;28;20057;-80
2022/06/16 12:27:10;;;;;;;4.13;1.02;;;26.80;49.90;;;;;;5108812;28;20050;-80
2022/06/16 12:29:48;;;;;;;4.05;0.88;;;26.90;49.20;;;;;;5109243;28;20406;-80
2022/06/16 12:32:22;;;;;;;2.50;0.88;;;27.10;50.60;;;;;;5108785;28;20468;-79
2022/06/16 12:35:07;;;;;;;2.60;1.08;;;27.30;50.00;;;;;;5091618;28;20048;-79
2022/06/16 12:37:43;;;;;;;2.70;1.20;;;27.30;50.20;;;;;;5110183;28;20472;-80
2022/06/16 12:40:35;;;;;;;2.88;1.00;;;27.40;49.70;;;;;;5108941;28;20043;-80
2022/06/16 12:43:09;;;;;;;2.88;0.93;;;27.40;49.70;;;;;;5098781;28;20480;-80
2022/06/16 12:45:42;;;;;;;4.10;1.33;;;27.40;49.50;;;;;;5109611;28;20051;-80
2022/06/16 12:48:17;;;;;;;2.95;1.02;;;27.40;48.90;;;;;;5108572;28;20047;-80
2022/06/16 12:50:54;;;;;;;4.00;1.13;;;27.30;49.00;;;;;;5109925;28;20054;-80
2022/06/16 12:53:48;;;;;;;3.33;1.40;;;27.30;48.70;;;;;;5108332;28;20120;-80
2022/06/16 12:56:25;;;;;;;1.25;0.90;;;27.20;47.20;;;;;;5100994;28;20047;-80
2022/06/16 12:58:57;;;;;;;2.90;0.95;;;27.20;49.20;;;;;;5109850;28;20096;-80
2022/06/16 13:01:23;;;;;;;2.35;0.90;;;27.20;49.80;;;;;;5108164;28;20052;-80
2022/06/16 13:04:19;;;;;;;1.85;1.17;;;27.30;49.70;;;;;;5109858;28;20047;-80
2022/06/16 13:06:46;;;;;;;2.40;1.00;;;27.40;49.70;;;;;;5108660;27;20070;-80
2022/06/16 13:09:14;;;;;;;2.35;0.93;;;27.50;49.70;;;;;;5107352;28;20043;-80
2022/06/16 13:11:54;;;;;;;3.55;1.20;;;27.50;48.40;;;;;;5109369;28;20055;-80
2022/06/16 13:14:27;;;;;;;2.78;0.90;;;27.50;48.40;;;;;;5106486;28;20060;-79
2022/06/16 13:16:54;;;;;;;2.63;1.13;;;27.40;47.70;;;;;;5108253;28;20354;-80
2022/06/16 13:19:24;;;;;;;1.35;0.90;;;27.30;46.90;;;;;;5107987;28;20413;-79
2022/06/16 13:22:01;;;;;;;2.15;1.10;;;27.10;46.90;;;;;;5108958;28;20032;-79
2022/06/16 13:24:39;;;;;;;2.38;1.00;;;27.10;47.50;;;;;;5107543;28;20044;-79
2022/06/16 13:27:21;;;;;;;1.88;0.80;;;27.20;46.40;;;;;;5106324;28;20083;-80
2022/06/16 13:29:50;;;;;;;7.10;1.23;;;27.20;48.20;;;;;;5107874;28;20039;-80
2022/06/16 13:32:40;;;;;;;1.52;0.93;;;27.30;48.40;;;;;;5107862;28;20434;-79
2022/06/16 13:35:12;;;;;;;3.83;1.25;;;27.50;48.70;;;;;;5107818;28;20100;-79
2022/06/16 13:37:49;;;;;;;12.00;0.90;;;27.50;48.60;;;;;;5108493;28;20047;-79